sensor_id;sensor_type;location;lat;lon;timestamp;P1;durP1;ratioP1;P2;durP2;ratioP2
47353;SDS011;50657;48.830;2.282;2022-12-24T00:01:39;12.70;;;1.30;;
47353;SDS011;50657;48.830;2.282;2022-12-24T00:04:06;4.88;;;1.05;;
47353;SDS011;50657;48.830;2.282;2022-12-24T00:06:33;10.95;;;2.22;;
47353;SDS011;50657;48.830;2.282;2022-12-24T00:09:00;14.50;;;1.50;;
47353;SDS011;50657;48.830;2.282;2022-12-24T00:11:27;11.88;;;1.05;;
47353;SDS011;50657;48.830;2.282;2022-12-24T00:13:56;13.07;;;1.80;;
47353;SDS011;50657;48.830;2.282;2022-12-24T00:16:23;16.00;;;1.90;;
47353;SDS011;50657;48.830;2.282;2022-12-24T00:18:50;15.27;;;1.48;;
47353;SDS011;50657;48.830;2.282;2022-12-24T00:21:17;15.43;;;1.42;;
47353;SDS011;50657;48.830;2.282;2022-12-24T00:23:44;8.75;;;1.60;;
47353;SDS011;50657;48.830;2.282;2022-12-24T00:26:11;11.90;;;1.63;;
47353;SDS011;50657;48.830;2.282;2022-12-24T00:28:39;8.85;;;1.90;;
47353;SDS011;50657;48.830;2.282;2022-12-24T00:31:08;12.55;;;1.70;;
47353;SDS011;50657;48.830;2.282;2022-12-24T00:33:37;10.38;;;2.15;;
47353;SDS011;50657;48.830;2.282;2022-12-24T00:36:04;6.20;;;1.25;;
47353;SDS011;50657;48.830;2.282;2022-12-24T00:38:32;6.82;;;1.17;;
47353;SDS011;50657;48.830;2.282;2022-12-24T00:40:59;11.85;;;2.45;;
47353;SDS011;50657;48.830;2.282;2022-12-24T00:43:27;9.65;;;1.75;;
47353;SDS011;50657;48.830;2.282;2022-12-24T00:45:56;10.30;;;2.17;;
47353;SDS011;50657;48.830;2.282;2022-12-24T00:48:26;10.38;;;2.33;;
47353;SDS011;50657;48.830;2.282;2022-12-24T00:50:53;8.13;;;2.08;;
47353;SDS011;50657;48.830;2.282;2022-12-24T00:53:20;9.75;;;1.25;;
47353;SDS011;50657;48.830;2.282;2022-12-24T00:55:47;18.65;;;2.63;;
47353;SDS011;50657;48.830;2.282;2022-12-24T00:58:14;6.22;;;1.63;;
47353;SDS011;50657;48.830;2.282;2022-12-24T01:00:41;7.22;;;1.65;;
47353;SDS011;50657;48.830;2.282;2022-12-24T01:03:08;11.20;;;0.63;;
47353;SDS011;50657;48.830;2.282;2022-12-24T01:05:36;8.68;;;2.17;;
47353;SDS011;50657;48.830;2.282;2022-12-24T01:08:02;11.77;;;2.15;;
47353;SDS011;50657;48.830;2.282;2022-12-24T01:10:29;9.98;;;1.60;;
47353;SDS011;50657;48.830;2.282;2022-12-24T01:12:59;14.25;;;2.80;;
47353;SDS011;50657;48.830;2.282;2022-12-24T01:15:27;11.45;;;1.80;;
47353;SDS011;50657;48.830;2.282;2022-12-24T01:17:54;10.57;;;0.63;;
47353;SDS011;50657;48.830;2.282;2022-12-24T01:20:22;5.68;;;1.23;;
47353;SDS011;50657;48.830;2.282;2022-12-24T01:22:52;4.88;;;1.05;;
47353;SDS011;50657;48.830;2.282;2022-12-24T01:25:20;8.85;;;1.42;;
47353;SDS011;50657;48.830;2.282;2022-12-24T01:27:47;6.88;;;1.35;;
47353;SDS011;50657;48.830;2.282;2022-12-24T01:30:14;15.63;;;1.23;;
47353;SDS011;50657;48.830;2.282;2022-12-24T01:32:41;9.98;;;0.98;;
47353;SDS011;50657;48.830;2.282;2022-12-24T01:35:08;7.97;;;1.17;;
47353;SDS011;50657;48.830;2.282;2022-12-24T01:37:36;13.23;;;2.80;;
47353;SDS011;50657;48.830;2.282;2022-12-24T01:40:05;9.38;;;1.35;;
47353;SDS011;50657;48.830;2.282;2022-12-24T01:42:52;9.23;;;1.45;;
47353;SDS011;50657;48.830;2.282;2022-12-24T01:45:44;7.13;;;2.38;;
47353;SDS011;50657;48.830;2.282;2022-12-24T01:48:15;10.90;;;1.70;;
47353;SDS011;50657;48.830;2.282;2022-12-24T01:50:46;10.23;;;1.00;;
47353;SDS011;50657;48.830;2.282;2022-12-24T01:53:15;8.85;;;0.77;;
47353;SDS011;50657;48.830;2.282;2022-12-24T01:55:44;13.88;;;1.92;;
47353;SDS011;50657;48.830;2.282;2022-12-24T01:58:12;9.43;;;1.52;;
47353;SDS011;50657;48.830;2.282;2022-12-24T02:00:42;7.30;;;1.50;;
47353;SDS011;50657;48.830;2.282;2022-12-24T02:03:09;8.05;;;1.02;;
47353;SDS011;50657;48.830;2.282;2022-12-24T02:05:38;7.80;;;0.77;;
47353;SDS011;50657;48.830;2.282;2022-12-24T02:08:11;10.38;;;1.02;;
47353;SDS011;50657;48.830;2.282;2022-12-24T02:10:39;4.90;;;1.05;;
47353;SDS011;50657;48.830;2.282;2022-12-24T02:13:07;9.15;;;1.40;;
47353;SDS011;50657;48.830;2.282;2022-12-24T02:15:38;14.40;;;1.58;;
47353;SDS011;50657;48.830;2.282;2022-12-24T02:18:18;8.98;;;0.80;;
47353;SDS011;50657;48.830;2.282;2022-12-24T02:23:53;9.10;;;2.17;;
47353;SDS011;50657;48.830;2.282;2022-12-24T02:26:54;8.80;;;2.85;;
47353;SDS011;50657;48.830;2.282;2022-12-24T02:29:56;12.55;;;1.05;;
47353;SDS011;50657;48.830;2.282;2022-12-24T02:32:42;5.88;;;0.85;;
47353;SDS011;50657;48.830;2.282;2022-12-24T02:35:19;10.80;;;2.38;;
47353;SDS011;50657;48.830;2.282;2022-12-24T02:37:53;7.22;;;1.00;;
47353;SDS011;50657;48.830;2.282;2022-12-24T02:40:24;6.30;;;0.85;;
47353;SDS011;50657;48.830;2.282;2022-12-24T02:42:57;8.80;;;0.70;;
47353;SDS011;50657;48.830;2.282;2022-12-24T02:45:31;9.70;;;1.30;;
47353;SDS011;50657;48.830;2.282;2022-12-24T02:48:00;6.15;;;2.47;;
47353;SDS011;50657;48.830;2.282;2022-12-24T02:50:28;10.52;;;2.38;;
47353;SDS011;50657;48.830;2.282;2022-12-24T02:52:55;7.93;;;1.75;;
47353;SDS011;50657;48.830;2.282;2022-12-24T02:55:22;3.95;;;1.02;;
47353;SDS011;50657;48.830;2.282;2022-12-24T02:58:03;7.63;;;1.20;;
47353;SDS011;50657;48.830;2.282;2022-12-24T03:00:45;15.02;;;1.35;;
47353;SDS011;50657;48.830;2.282;2022-12-24T03:03:44;5.53;;;0.82;;
47353;SDS011;50657;48.830;2.282;2022-12-24T03:06:22;13.25;;;2.20;;
47353;SDS011;50657;48.830;2.282;2022-12-24T03:08:59;7.07;;;0.98;;
47353;SDS011;50657;48.830;2.282;2022-12-24T03:11:33;6.57;;;1.55;;
47353;SDS011;50657;48.830;2.282;2022-12-24T03:14:03;11.23;;;0.57;;
47353;SDS011;50657;48.830;2.282;2022-12-24T03:16:31;9.35;;;0.82;;
47353;SDS011;50657;48.830;2.282;2022-12-24T03:18:59;10.35;;;1.40;;
47353;SDS011;50657;48.830;2.282;2022-12-24T03:21:27;6.05;;;0.80;;
47353;SDS011;50657;48.830;2.282;2022-12-24T03:23:56;6.10;;;0.63;;
47353;SDS011;50657;48.830;2.282;2022-12-24T03:26:24;3.58;;;0.63;;
47353;SDS011;50657;48.830;2.282;2022-12-24T03:28:54;8.32;;;1.23;;
47353;SDS011;50657;48.830;2.282;2022-12-24T03:31:21;8.13;;;0.90;;
47353;SDS011;50657;48.830;2.282;2022-12-24T03:33:49;10.73;;;1.25;;
47353;SDS011;50657;48.830;2.282;2022-12-24T03:36:17;12.93;;;1.67;;
47353;SDS011;50657;48.830;2.282;2022-12-24T03:38:44;4.18;;;0.60;;
47353;SDS011;50657;48.830;2.282;2022-12-24T03:41:11;4.88;;;0.57;;
47353;SDS011;50657;48.830;2.282;2022-12-24T03:43:38;3.92;;;0.85;;
47353;SDS011;50657;48.830;2.282;2022-12-24T03:46:05;7.05;;;0.65;;
47353;SDS011;50657;48.830;2.282;2022-12-24T03:48:33;5.68;;;0.70;;
47353;SDS011;50657;48.830;2.282;2022-12-24T03:51:02;4.82;;;1.05;;
47353;SDS011;50657;48.830;2.282;2022-12-24T03:53:30;12.93;;;1.33;;
47353;SDS011;50657;48.830;2.282;2022-12-24T03:55:57;6.45;;;1.35;;
47353;SDS011;50657;48.830;2.282;2022-12-24T03:58:24;11.70;;;1.70;;
47353;SDS011;50657;48.830;2.282;2022-12-24T04:00:51;3.92;;;0.55;;
47353;SDS011;50657;48.830;2.282;2022-12-24T04:03:19;9.50;;;1.17;;
47353;SDS011;50657;48.830;2.282;2022-12-24T04:05:46;5.88;;;1.08;;
47353;SDS011;50657;48.830;2.282;2022-12-24T04:08:15;6.68;;;1.02;;
47353;SDS011;50657;48.830;2.282;2022-12-24T04:10:42;8.25;;;0.93;;
47353;SDS011;50657;48.830;2.282;2022-12-24T04:13:09;7.15;;;0.80;;
47353;SDS011;50657;48.830;2.282;2022-12-24T04:15:36;7.70;;;0.65;;
47353;SDS011;50657;48.830;2.282;2022-12-24T04:18:03;9.25;;;1.05;;
47353;SDS011;50657;48.830;2.282;2022-12-24T04:20:30;8.10;;;1.05;;
47353;SDS011;50657;48.830;2.282;2022-12-24T04:22:57;9.40;;;0.68;;
47353;SDS011;50657;48.830;2.282;2022-12-24T04:25:25;4.63;;;1.15;;
47353;SDS011;50657;48.830;2.282;2022-12-24T04:27:52;9.70;;;1.33;;
47353;SDS011;50657;48.830;2.282;2022-12-24T04:30:19;3.10;;;0.68;;
47353;SDS011;50657;48.830;2.282;2022-12-24T04:32:46;11.07;;;1.05;;
47353;SDS011;50657;48.830;2.282;2022-12-24T04:35:13;7.03;;;1.85;;
47353;SDS011;50657;48.830;2.282;2022-12-24T04:37:40;7.25;;;1.17;;
47353;SDS011;50657;48.830;2.282;2022-12-24T04:40:08;8.50;;;0.52;;
47353;SDS011;50657;48.830;2.282;2022-12-24T04:42:37;7.93;;;1.90;;
47353;SDS011;50657;48.830;2.282;2022-12-24T04:45:04;6.55;;;0.70;;
47353;SDS011;50657;48.830;2.282;2022-12-24T04:47:32;8.75;;;0.90;;
47353;SDS011;50657;48.830;2.282;2022-12-24T04:49:59;6.53;;;1.02;;
47353;SDS011;50657;48.830;2.282;2022-12-24T04:52:26;6.88;;;1.08;;
47353;SDS011;50657;48.830;2.282;2022-12-24T04:54:53;4.97;;;0.93;;
47353;SDS011;50657;48.830;2.282;2022-12-24T04:57:20;9.25;;;2.05;;
47353;SDS011;50657;48.830;2.282;2022-12-24T04:59:48;11.98;;;1.38;;
47353;SDS011;50657;48.830;2.282;2022-12-24T05:02:15;10.65;;;1.08;;
47353;SDS011;50657;48.830;2.282;2022-12-24T05:04:42;5.18;;;1.05;;
47353;SDS011;50657;48.830;2.282;2022-12-24T05:07:09;9.15;;;0.95;;
47353;SDS011;50657;48.830;2.282;2022-12-24T05:09:36;8.13;;;0.55;;
47353;SDS011;50657;48.830;2.282;2022-12-24T05:12:04;6.15;;;0.80;;
47353;SDS011;50657;48.830;2.282;2022-12-24T05:14:31;3.97;;;1.40;;
47353;SDS011;50657;48.830;2.282;2022-12-24T05:16:59;6.55;;;1.08;;
47353;SDS011;50657;48.830;2.282;2022-12-24T05:19:26;12.63;;;1.45;;
47353;SDS011;50657;48.830;2.282;2022-12-24T05:21:53;8.70;;;0.40;;
47353;SDS011;50657;48.830;2.282;2022-12-24T05:24:34;6.40;;;1.83;;
47353;SDS011;50657;48.830;2.282;2022-12-24T05:27:19;6.35;;;0.70;;
47353;SDS011;50657;48.830;2.282;2022-12-24T05:29:47;9.63;;;0.98;;
47353;SDS011;50657;48.830;2.282;2022-12-24T05:32:15;7.03;;;1.42;;
47353;SDS011;50657;48.830;2.282;2022-12-24T05:34:42;8.80;;;1.20;;
47353;SDS011;50657;48.830;2.282;2022-12-24T05:37:09;5.03;;;0.38;;
47353;SDS011;50657;48.830;2.282;2022-12-24T05:39:36;7.43;;;0.85;;
47353;SDS011;50657;48.830;2.282;2022-12-24T05:42:04;5.55;;;0.57;;
47353;SDS011;50657;48.830;2.282;2022-12-24T05:44:31;6.28;;;0.93;;
47353;SDS011;50657;48.830;2.282;2022-12-24T05:46:58;6.57;;;1.00;;
47353;SDS011;50657;48.830;2.282;2022-12-24T05:49:26;4.85;;;0.47;;
47353;SDS011;50657;48.830;2.282;2022-12-24T05:51:55;11.75;;;1.48;;
47353;SDS011;50657;48.830;2.282;2022-12-24T05:54:22;10.77;;;0.70;;
47353;SDS011;50657;48.830;2.282;2022-12-24T05:56:49;8.50;;;0.98;;
47353;SDS011;50657;48.830;2.282;2022-12-24T05:59:16;10.73;;;0.88;;
47353;SDS011;50657;48.830;2.282;2022-12-24T06:01:43;10.55;;;1.48;;
47353;SDS011;50657;48.830;2.282;2022-12-24T06:04:12;5.30;;;0.88;;
47353;SDS011;50657;48.830;2.282;2022-12-24T06:06:40;7.35;;;1.73;;
47353;SDS011;50657;48.830;2.282;2022-12-24T06:09:07;8.85;;;1.98;;
47353;SDS011;50657;48.830;2.282;2022-12-24T06:11:34;9.65;;;0.80;;
47353;SDS011;50657;48.830;2.282;2022-12-24T06:14:02;9.25;;;1.38;;
47353;SDS011;50657;48.830;2.282;2022-12-24T06:16:29;8.45;;;1.52;;
47353;SDS011;50657;48.830;2.282;2022-12-24T06:18:56;4.22;;;0.70;;
47353;SDS011;50657;48.830;2.282;2022-12-24T06:21:23;9.07;;;0.70;;
47353;SDS011;50657;48.830;2.282;2022-12-24T06:23:52;7.38;;;0.80;;
47353;SDS011;50657;48.830;2.282;2022-12-24T06:26:19;8.50;;;0.60;;
47353;SDS011;50657;48.830;2.282;2022-12-24T06:28:48;6.00;;;0.90;;
47353;SDS011;50657;48.830;2.282;2022-12-24T06:31:16;4.63;;;0.70;;
47353;SDS011;50657;48.830;2.282;2022-12-24T06:33:45;10.60;;;1.08;;
47353;SDS011;50657;48.830;2.282;2022-12-24T06:36:13;5.18;;;0.93;;
47353;SDS011;50657;48.830;2.282;2022-12-24T06:38:41;3.72;;;0.63;;
47353;SDS011;50657;48.830;2.282;2022-12-24T06:41:10;10.65;;;0.65;;
47353;SDS011;50657;48.830;2.282;2022-12-24T06:43:37;11.50;;;1.17;;
47353;SDS011;50657;48.830;2.282;2022-12-24T06:46:04;3.42;;;0.52;;
47353;SDS011;50657;48.830;2.282;2022-12-24T06:48:31;8.23;;;1.83;;
47353;SDS011;50657;48.830;2.282;2022-12-24T06:51:00;5.18;;;1.08;;
47353;SDS011;50657;48.830;2.282;2022-12-24T06:53:28;7.55;;;1.08;;
47353;SDS011;50657;48.830;2.282;2022-12-24T06:55:59;6.72;;;0.80;;
47353;SDS011;50657;48.830;2.282;2022-12-24T06:58:28;8.82;;;1.50;;
47353;SDS011;50657;48.830;2.282;2022-12-24T07:00:56;12.50;;;1.10;;
47353;SDS011;50657;48.830;2.282;2022-12-24T07:03:23;9.70;;;0.80;;
47353;SDS011;50657;48.830;2.282;2022-12-24T07:05:50;11.18;;;0.90;;
47353;SDS011;50657;48.830;2.282;2022-12-24T07:08:17;6.63;;;0.55;;
47353;SDS011;50657;48.830;2.282;2022-12-24T07:10:44;19.05;;;1.25;;
47353;SDS011;50657;48.830;2.282;2022-12-24T07:13:11;13.52;;;1.98;;
47353;SDS011;50657;48.830;2.282;2022-12-24T07:15:39;6.28;;;0.68;;
47353;SDS011;50657;48.830;2.282;2022-12-24T07:18:07;4.82;;;1.90;;
47353;SDS011;50657;48.830;2.282;2022-12-24T07:20:34;7.35;;;1.05;;
47353;SDS011;50657;48.830;2.282;2022-12-24T07:23:01;12.02;;;0.93;;
47353;SDS011;50657;48.830;2.282;2022-12-24T07:25:28;11.05;;;1.23;;
47353;SDS011;50657;48.830;2.282;2022-12-24T07:27:55;9.80;;;1.20;;
47353;SDS011;50657;48.830;2.282;2022-12-24T07:30:22;3.33;;;0.40;;
47353;SDS011;50657;48.830;2.282;2022-12-24T07:32:50;13.23;;;3.08;;
47353;SDS011;50657;48.830;2.282;2022-12-24T07:35:17;11.10;;;1.15;;
47353;SDS011;50657;48.830;2.282;2022-12-24T07:37:44;4.75;;;0.35;;
47353;SDS011;50657;48.830;2.282;2022-12-24T07:40:11;10.35;;;0.40;;
47353;SDS011;50657;48.830;2.282;2022-12-24T07:42:38;10.27;;;0.45;;
47353;SDS011;50657;48.830;2.282;2022-12-24T07:45:06;5.43;;;0.20;;
47353;SDS011;50657;48.830;2.282;2022-12-24T07:47:34;6.78;;;0.70;;
47353;SDS011;50657;48.830;2.282;2022-12-24T07:50:03;10.15;;;0.60;;
47353;SDS011;50657;48.830;2.282;2022-12-24T07:52:31;6.40;;;0.43;;
47353;SDS011;50657;48.830;2.282;2022-12-24T07:54:58;6.85;;;0.45;;
47353;SDS011;50657;48.830;2.282;2022-12-24T07:57:25;4.22;;;0.20;;
47353;SDS011;50657;48.830;2.282;2022-12-24T07:59:52;7.78;;;0.32;;
47353;SDS011;50657;48.830;2.282;2022-12-24T08:02:19;5.90;;;1.20;;
47353;SDS011;50657;48.830;2.282;2022-12-24T08:04:46;2.47;;;0.43;;
47353;SDS011;50657;48.830;2.282;2022-12-24T08:07:14;2.95;;;0.40;;
47353;SDS011;50657;48.830;2.282;2022-12-24T08:09:41;3.33;;;0.63;;
47353;SDS011;50657;48.830;2.282;2022-12-24T08:12:10;4.20;;;0.10;;
47353;SDS011;50657;48.830;2.282;2022-12-24T08:14:37;3.95;;;0.20;;
47353;SDS011;50657;48.830;2.282;2022-12-24T08:17:04;3.58;;;0.28;;
47353;SDS011;50657;48.830;2.282;2022-12-24T08:19:31;4.90;;;0.55;;
47353;SDS011;50657;48.830;2.282;2022-12-24T08:21:58;2.78;;;0.25;;
47353;SDS011;50657;48.830;2.282;2022-12-24T08:24:26;3.17;;;0.10;;
47353;SDS011;50657;48.830;2.282;2022-12-24T08:26:53;5.55;;;0.15;;
47353;SDS011;50657;48.830;2.282;2022-12-24T08:29:20;3.60;;;0.20;;
47353;SDS011;50657;48.830;2.282;2022-12-24T08:31:47;1.40;;;0.32;;
47353;SDS011;50657;48.830;2.282;2022-12-24T08:34:15;0.45;;;0.40;;
47353;SDS011;50657;48.830;2.282;2022-12-24T08:36:42;1.95;;;0.20;;
47353;SDS011;50657;48.830;2.282;2022-12-24T08:39:09;4.60;;;0.60;;
47353;SDS011;50657;48.830;2.282;2022-12-24T08:41:37;2.95;;;0.40;;
47353;SDS011;50657;48.830;2.282;2022-12-24T08:44:04;2.47;;;0.10;;
47353;SDS011;50657;48.830;2.282;2022-12-24T08:46:31;3.50;;;0.63;;
47353;SDS011;50657;48.830;2.282;2022-12-24T08:48:58;2.90;;;0.10;;
47353;SDS011;50657;48.830;2.282;2022-12-24T08:51:25;2.30;;;0.50;;
47353;SDS011;50657;48.830;2.282;2022-12-24T08:53:52;3.60;;;0.90;;
47353;SDS011;50657;48.830;2.282;2022-12-24T08:56:19;6.10;;;0.73;;
47353;SDS011;50657;48.830;2.282;2022-12-24T08:58:48;2.05;;;0.40;;
47353;SDS011;50657;48.830;2.282;2022-12-24T09:01:15;1.88;;;0.38;;
47353;SDS011;50657;48.830;2.282;2022-12-24T09:03:44;0.95;;;0.20;;
47353;SDS011;50657;48.830;2.282;2022-12-24T09:06:11;2.55;;;0.20;;
47353;SDS011;50657;48.830;2.282;2022-12-24T09:08:39;3.53;;;0.10;;
47353;SDS011;50657;48.830;2.282;2022-12-24T09:11:06;3.58;;;0.40;;
47353;SDS011;50657;48.830;2.282;2022-12-24T09:13:35;1.83;;;0.10;;
47353;SDS011;50657;48.830;2.282;2022-12-24T09:16:03;1.80;;;0.75;;
47353;SDS011;50657;48.830;2.282;2022-12-24T09:18:31;4.97;;;0.75;;
47353;SDS011;50657;48.830;2.282;2022-12-24T09:20:58;3.63;;;0.57;;
47353;SDS011;50657;48.830;2.282;2022-12-24T09:23:26;5.15;;;0.30;;
47353;SDS011;50657;48.830;2.282;2022-12-24T09:25:53;1.58;;;0.95;;
47353;SDS011;50657;48.830;2.282;2022-12-24T09:28:20;3.97;;;0.28;;
47353;SDS011;50657;48.830;2.282;2022-12-24T09:30:55;2.55;;;0.20;;
47353;SDS011;50657;48.830;2.282;2022-12-24T09:33:27;0.98;;;0.73;;
47353;SDS011;50657;48.830;2.282;2022-12-24T09:35:56;2.05;;;0.10;;
47353;SDS011;50657;48.830;2.282;2022-12-24T09:38:23;1.27;;;0.68;;
47353;SDS011;50657;48.830;2.282;2022-12-24T09:40:51;3.35;;;0.10;;
47353;SDS011;50657;48.830;2.282;2022-12-24T09:43:20;1.42;;;0.20;;
47353;SDS011;50657;48.830;2.282;2022-12-24T09:45:50;2.50;;;0.13;;
47353;SDS011;50657;48.830;2.282;2022-12-24T09:48:31;3.28;;;0.10;;
47353;SDS011;50657;48.830;2.282;2022-12-24T09:51:01;2.53;;;0.20;;
47353;SDS011;50657;48.830;2.282;2022-12-24T09:53:34;2.83;;;0.20;;
47353;SDS011;50657;48.830;2.282;2022-12-24T09:56:08;0.68;;;0.45;;
47353;SDS011;50657;48.830;2.282;2022-12-24T09:58:39;1.80;;;0.20;;
47353;SDS011;50657;48.830;2.282;2022-12-24T10:01:10;1.65;;;0.10;;
47353;SDS011;50657;48.830;2.282;2022-12-24T10:03:39;0.30;;;0.10;;
47353;SDS011;50657;48.830;2.282;2022-12-24T10:06:08;2.55;;;0.25;;
47353;SDS011;50657;48.830;2.282;2022-12-24T10:08:43;1.95;;;0.10;;
47353;SDS011;50657;48.830;2.282;2022-12-24T10:11:23;1.15;;;0.10;;
47353;SDS011;50657;48.830;2.282;2022-12-24T10:14:01;0.85;;;0.30;;
47353;SDS011;50657;48.830;2.282;2022-12-24T10:16:36;1.77;;;0.10;;
47353;SDS011;50657;48.830;2.282;2022-12-24T10:19:13;4.38;;;0.30;;
47353;SDS011;50657;48.830;2.282;2022-12-24T10:21:47;0.73;;;0.10;;
47353;SDS011;50657;48.830;2.282;2022-12-24T10:24:24;4.90;;;0.30;;
47353;SDS011;50657;48.830;2.282;2022-12-24T10:26:56;4.57;;;0.38;;
47353;SDS011;50657;48.830;2.282;2022-12-24T10:29:26;3.30;;;0.20;;
47353;SDS011;50657;48.830;2.282;2022-12-24T10:31:58;1.08;;;0.10;;
47353;SDS011;50657;48.830;2.282;2022-12-24T10:34:37;3.42;;;0.20;;
47353;SDS011;50657;48.830;2.282;2022-12-24T10:37:08;3.25;;;0.77;;
47353;SDS011;50657;48.830;2.282;2022-12-24T10:39:40;0.60;;;0.10;;
47353;SDS011;50657;48.830;2.282;2022-12-24T10:42:08;3.70;;;0.10;;
47353;SDS011;50657;48.830;2.282;2022-12-24T10:44:38;0.93;;;0.20;;
47353;SDS011;50657;48.830;2.282;2022-12-24T10:47:06;2.47;;;0.20;;
47353;SDS011;50657;48.830;2.282;2022-12-24T10:49:36;3.20;;;0.35;;
47353;SDS011;50657;48.830;2.282;2022-12-24T10:52:10;0.40;;;0.10;;
47353;SDS011;50657;48.830;2.282;2022-12-24T10:54:59;0.38;;;0.17;;
47353;SDS011;50657;48.830;2.282;2022-12-24T10:57:31;4.03;;;0.20;;
47353;SDS011;50657;48.830;2.282;2022-12-24T11:00:00;0.75;;;0.10;;
47353;SDS011;50657;48.830;2.282;2022-12-24T11:02:28;2.63;;;0.35;;
47353;SDS011;50657;48.830;2.282;2022-12-24T11:04:58;1.95;;;0.25;;
47353;SDS011;50657;48.830;2.282;2022-12-24T11:07:27;2.55;;;0.20;;
47353;SDS011;50657;48.830;2.282;2022-12-24T11:09:56;8.05;;;0.10;;
47353;SDS011;50657;48.830;2.282;2022-12-24T11:12:26;3.53;;;0.38;;
47353;SDS011;50657;48.830;2.282;2022-12-24T11:14:59;0.43;;;0.10;;
47353;SDS011;50657;48.830;2.282;2022-12-24T11:17:29;2.15;;;0.20;;
47353;SDS011;50657;48.830;2.282;2022-12-24T11:19:57;1.48;;;0.10;;
47353;SDS011;50657;48.830;2.282;2022-12-24T11:22:28;2.53;;;0.20;;
47353;SDS011;50657;48.830;2.282;2022-12-24T11:24:57;2.40;;;0.85;;
47353;SDS011;50657;48.830;2.282;2022-12-24T11:27:29;1.20;;;0.40;;
47353;SDS011;50657;48.830;2.282;2022-12-24T11:35:56;4.53;;;0.10;;
47353;SDS011;50657;48.830;2.282;2022-12-24T11:38:28;1.23;;;0.10;;
47353;SDS011;50657;48.830;2.282;2022-12-24T11:40:58;1.55;;;0.10;;
47353;SDS011;50657;48.830;2.282;2022-12-24T11:43:33;0.95;;;0.20;;
47353;SDS011;50657;48.830;2.282;2022-12-24T11:46:16;2.00;;;0.40;;
47353;SDS011;50657;48.830;2.282;2022-12-24T11:48:45;6.18;;;0.10;;
47353;SDS011;50657;48.830;2.282;2022-12-24T11:51:25;2.60;;;0.38;;
47353;SDS011;50657;48.830;2.282;2022-12-24T11:53:57;1.77;;;0.13;;
47353;SDS011;50657;48.830;2.282;2022-12-24T11:56:32;2.67;;;0.20;;
47353;SDS011;50657;48.830;2.282;2022-12-24T11:59:10;4.18;;;0.50;;
47353;SDS011;50657;48.830;2.282;2022-12-24T12:01:45;2.85;;;0.17;;
47353;SDS011;50657;48.830;2.282;2022-12-24T12:04:17;3.53;;;0.10;;
47353;SDS011;50657;48.830;2.282;2022-12-24T12:06:49;5.00;;;0.30;;
47353;SDS011;50657;48.830;2.282;2022-12-24T12:09:21;1.10;;;0.20;;
47353;SDS011;50657;48.830;2.282;2022-12-24T12:11:52;3.53;;;0.17;;
47353;SDS011;50657;48.830;2.282;2022-12-24T12:14:24;2.22;;;0.35;;
47353;SDS011;50657;48.830;2.282;2022-12-24T12:16:57;3.67;;;0.10;;
47353;SDS011;50657;48.830;2.282;2022-12-24T12:19:31;3.78;;;0.20;;
47353;SDS011;50657;48.830;2.282;2022-12-24T12:22:10;0.95;;;0.10;;
47353;SDS011;50657;48.830;2.282;2022-12-24T12:24:49;0.85;;;0.30;;
47353;SDS011;50657;48.830;2.282;2022-12-24T12:27:19;2.83;;;1.00;;
47353;SDS011;50657;48.830;2.282;2022-12-24T12:29:51;1.05;;;0.10;;
47353;SDS011;50657;48.830;2.282;2022-12-24T12:32:24;1.63;;;0.08;;
47353;SDS011;50657;48.830;2.282;2022-12-24T12:35:03;4.50;;;0.20;;
47353;SDS011;50657;48.830;2.282;2022-12-24T12:37:42;1.83;;;0.10;;
47353;SDS011;50657;48.830;2.282;2022-12-24T12:40:12;1.02;;;0.10;;
47353;SDS011;50657;48.830;2.282;2022-12-24T12:42:40;1.38;;;0.10;;
47353;SDS011;50657;48.830;2.282;2022-12-24T12:45:28;0.82;;;0.22;;
47353;SDS011;50657;48.830;2.282;2022-12-24T12:48:07;2.13;;;0.40;;
47353;SDS011;50657;48.830;2.282;2022-12-24T12:50:57;1.65;;;0.20;;
47353;SDS011;50657;48.830;2.282;2022-12-24T12:53:34;1.65;;;0.17;;
47353;SDS011;50657;48.830;2.282;2022-12-24T12:56:12;3.83;;;0.20;;
47353;SDS011;50657;48.830;2.282;2022-12-24T12:58:49;2.13;;;0.43;;
47353;SDS011;50657;48.830;2.282;2022-12-24T13:01:22;0.60;;;0.10;;
47353;SDS011;50657;48.830;2.282;2022-12-24T13:04:01;3.17;;;0.55;;
47353;SDS011;50657;48.830;2.282;2022-12-24T13:10:06;3.75;;;0.10;;
47353;SDS011;50657;48.830;2.282;2022-12-24T13:12:58;1.02;;;0.10;;
47353;SDS011;50657;48.830;2.282;2022-12-24T13:15:46;3.63;;;0.65;;
47353;SDS011;50657;48.830;2.282;2022-12-24T13:18:34;0.10;;;0.10;;
47353;SDS011;50657;48.830;2.282;2022-12-24T13:21:13;0.95;;;0.45;;
47353;SDS011;50657;48.830;2.282;2022-12-24T13:23:43;1.30;;;0.20;;
47353;SDS011;50657;48.830;2.282;2022-12-24T13:26:12;1.55;;;0.10;;
47353;SDS011;50657;48.830;2.282;2022-12-24T13:28:40;3.40;;;0.30;;
47353;SDS011;50657;48.830;2.282;2022-12-24T13:31:27;2.80;;;0.40;;
47353;SDS011;50657;48.830;2.282;2022-12-24T13:33:56;0.50;;;0.10;;
47353;SDS011;50657;48.830;2.282;2022-12-24T13:36:24;2.70;;;0.10;;
47353;SDS011;50657;48.830;2.282;2022-12-24T13:42:50;3.30;;;0.20;;
47353;SDS011;50657;48.830;2.282;2022-12-24T13:45:44;1.92;;;0.10;;
47353;SDS011;50657;48.830;2.282;2022-12-24T13:48:17;4.00;;;0.35;;
47353;SDS011;50657;48.830;2.282;2022-12-24T13:50:53;1.45;;;0.10;;
47353;SDS011;50657;48.830;2.282;2022-12-24T13:53:25;0.30;;;0.30;;
47353;SDS011;50657;48.830;2.282;2022-12-24T13:55:54;2.85;;;0.40;;
47353;SDS011;50657;48.830;2.282;2022-12-24T13:58:25;2.00;;;0.10;;
47353;SDS011;50657;48.830;2.282;2022-12-24T14:00:53;1.73;;;0.20;;
47353;SDS011;50657;48.830;2.282;2022-12-24T14:03:28;0.30;;;0.10;;
47353;SDS011;50657;48.830;2.282;2022-12-24T14:05:59;1.52;;;0.10;;
47353;SDS011;50657;48.830;2.282;2022-12-24T14:08:33;0.57;;;0.10;;
47353;SDS011;50657;48.830;2.282;2022-12-24T14:11:06;1.73;;;0.10;;
47353;SDS011;50657;48.830;2.282;2022-12-24T14:13:51;2.30;;;1.00;;
47353;SDS011;50657;48.830;2.282;2022-12-24T14:16:40;2.08;;;0.20;;
47353;SDS011;50657;48.830;2.282;2022-12-24T14:19:11;0.63;;;0.20;;
47353;SDS011;50657;48.830;2.282;2022-12-24T14:21:42;3.45;;;0.63;;
47353;SDS011;50657;48.830;2.282;2022-12-24T14:24:16;2.30;;;0.40;;
47353;SDS011;50657;48.830;2.282;2022-12-24T14:26:48;1.25;;;0.52;;
47353;SDS011;50657;48.830;2.282;2022-12-24T14:29:20;1.88;;;0.10;;
47353;SDS011;50657;48.830;2.282;2022-12-24T14:31:52;3.15;;;0.10;;
47353;SDS011;50657;48.830;2.282;2022-12-24T14:34:20;0.40;;;0.20;;
47353;SDS011;50657;48.830;2.282;2022-12-24T14:36:48;1.75;;;0.10;;
47353;SDS011;50657;48.830;2.282;2022-12-24T14:39:24;2.08;;;1.20;;
47353;SDS011;50657;48.830;2.282;2022-12-24T14:42:01;0.85;;;0.10;;
47353;SDS011;50657;48.830;2.282;2022-12-24T14:44:38;2.10;;;0.17;;
47353;SDS011;50657;48.830;2.282;2022-12-24T14:47:19;2.25;;;0.38;;
47353;SDS011;50657;48.830;2.282;2022-12-24T14:52:47;0.75;;;0.15;;
47353;SDS011;50657;48.830;2.282;2022-12-24T14:55:29;1.52;;;0.10;;
47353;SDS011;50657;48.830;2.282;2022-12-24T15:00:53;1.50;;;0.40;;
47353;SDS011;50657;48.830;2.282;2022-12-24T15:03:22;6.07;;;0.30;;
47353;SDS011;50657;48.830;2.282;2022-12-24T15:05:52;2.28;;;0.73;;
47353;SDS011;50657;48.830;2.282;2022-12-24T15:08:22;1.80;;;0.10;;
47353;SDS011;50657;48.830;2.282;2022-12-24T15:10:56;0.47;;;0.10;;
47353;SDS011;50657;48.830;2.282;2022-12-24T15:13:27;0.75;;;0.10;;
47353;SDS011;50657;48.830;2.282;2022-12-24T15:15:58;1.00;;;0.20;;
47353;SDS011;50657;48.830;2.282;2022-12-24T15:18:28;1.60;;;0.43;;
47353;SDS011;50657;48.830;2.282;2022-12-24T15:20:58;1.60;;;0.35;;
47353;SDS011;50657;48.830;2.282;2022-12-24T15:23:28;1.38;;;0.13;;
47353;SDS011;50657;48.830;2.282;2022-12-24T15:26:10;1.67;;;0.15;;
47353;SDS011;50657;48.830;2.282;2022-12-24T15:28:43;0.82;;;0.17;;